createdAt,value
2023-05-29T00:01:39.054Z,59.50
2023-05-29T00:04:06.036Z,59.40
2023-05-29T00:06:34.262Z,59.60
2023-05-29T00:09:01.057Z,59.60
2023-05-29T00:11:27.881Z,59.50
2023-05-29T00:13:54.686Z,59.50
2023-05-29T00:16:21.610Z,59.60
2023-05-29T00:18:48.440Z,59.50
2023-05-29T00:21:15.339Z,59.70
2023-05-29T00:23:44.369Z,59.80
2023-05-29T00:26:13.226Z,59.90
2023-05-29T00:28:40.036Z,59.80
2023-05-29T00:31:06.861Z,59.80
2023-05-29T00:33:33.667Z,59.80
2023-05-29T00:36:00.476Z,59.70
2023-05-29T00:38:27.249Z,59.80
2023-05-29T00:40:55.441Z,59.80
2023-05-29T00:43:22.246Z,59.90
2023-05-29T00:45:49.968Z,60.00
2023-05-29T00:48:17.277Z,60.00
2023-05-29T00:50:45.557Z,60.00
2023-05-29T00:53:12.538Z,60.30
2023-05-29T00:55:39.533Z,60.40
2023-05-29T00:58:07.879Z,60.10
2023-05-29T01:00:34.912Z,60.00
2023-05-29T01:03:03.314Z,60.20
2023-05-29T01:05:30.246Z,60.20
2023-05-29T01:07:57.032Z,60.20
2023-05-29T01:10:23.952Z,60.60
2023-05-29T01:12:56.812Z,60.60
2023-05-29T01:15:37.004Z,60.60
2023-05-29T01:18:23.751Z,60.50
2023-05-29T01:20:58.331Z,60.50
2023-05-29T01:23:52.191Z,60.50
2023-05-29T01:26:46.768Z,60.50
2023-05-29T01:29:16.146Z,60.70
2023-05-29T01:31:44.807Z,60.60
2023-05-29T01:34:12.038Z,60.50
2023-05-29T01:36:39.116Z,60.50
2023-05-29T01:39:06.837Z,60.70
2023-05-29T01:41:34.815Z,60.60
2023-05-29T01:44:04.965Z,60.60
2023-05-29T01:46:31.860Z,60.80
2023-05-29T01:48:58.704Z,60.90
2023-05-29T01:51:25.601Z,60.80
2023-05-29T01:53:52.515Z,60.80
2023-05-29T01:56:19.799Z,60.90
2023-05-29T01:58:47.305Z,60.90
2023-05-29T02:01:15.621Z,61.20
2023-05-29T02:03:42.573Z,61.20
2023-05-29T02:06:09.349Z,61.30
2023-05-29T02:08:36.166Z,61.00
2023-05-29T02:11:02.995Z,61.30
2023-05-29T02:13:29.852Z,61.40
2023-05-29T02:15:56.705Z,61.50
2023-05-29T02:18:24.992Z,61.50
2023-05-29T02:20:52.086Z,61.70
2023-05-29T02:23:19.225Z,61.60
2023-05-29T02:25:46.377Z,61.50
2023-05-29T02:28:13.328Z,61.10
2023-05-29T02:30:40.283Z,61.20
2023-05-29T02:33:07.157Z,61.10
2023-05-29T02:35:35.345Z,61.30
2023-05-29T02:38:02.280Z,61.10
2023-05-29T02:40:29.222Z,61.30
2023-05-29T02:42:56.018Z,61.30
2023-05-29T02:45:22.942Z,61.30
2023-05-29T02:47:49.792Z,61.40
2023-05-29T02:50:16.575Z,61.30
2023-05-29T02:52:44.721Z,61.30
2023-05-29T02:55:11.527Z,61.50
2023-05-29T02:57:38.302Z,61.30
2023-05-29T03:00:05.930Z,61.30
2023-05-29T03:02:33.181Z,61.50
2023-05-29T03:05:00.025Z,61.30
2023-05-29T03:07:26.864Z,61.50
2023-05-29T03:09:55.127Z,61.70
2023-05-29T03:12:21.918Z,61.80
2023-05-29T03:14:48.699Z,62.10
2023-05-29T03:17:15.558Z,61.90
2023-05-29T03:19:42.342Z,62.20
2023-05-29T03:22:09.269Z,62.40
2023-05-29T03:24:36.073Z,62.20
2023-05-29T03:27:04.678Z,62.00
2023-05-29T03:29:32.346Z,62.30
2023-05-29T03:31:59.174Z,62.30
2023-05-29T03:34:26.003Z,62.10
2023-05-29T03:36:52.831Z,62.20
2023-05-29T03:39:19.651Z,62.40
2023-05-29T03:41:46.482Z,62.30
2023-05-29T03:44:14.761Z,62.10
2023-05-29T03:46:41.636Z,62.50
2023-05-29T03:49:08.658Z,62.60
2023-05-29T03:51:35.582Z,62.30
2023-05-29T03:54:02.460Z,62.50
2023-05-29T03:56:29.309Z,62.50
2023-05-29T03:58:56.112Z,62.50
2023-05-29T04:01:24.609Z,62.70
2023-05-29T04:03:51.576Z,62.90
2023-05-29T04:06:18.585Z,63.00
2023-05-29T04:08:45.442Z,63.00
2023-05-29T04:11:12.513Z,62.90
2023-05-29T04:13:39.387Z,63.00
2023-05-29T04:16:06.408Z,64.40
2023-05-29T04:18:34.704Z,63.50
2023-05-29T04:21:01.793Z,63.40
2023-05-29T04:23:28.693Z,63.40
2023-05-29T04:25:55.514Z,63.50
2023-05-29T04:28:22.368Z,63.80
2023-05-29T04:30:49.362Z,63.80
2023-05-29T04:33:16.354Z,64.30
2023-05-29T04:35:44.589Z,64.00
2023-05-29T04:38:11.510Z,64.10
2023-05-29T04:40:38.500Z,64.00
2023-05-29T04:43:05.374Z,64.00
2023-05-29T04:45:32.260Z,64.00
2023-05-29T04:47:59.126Z,64.30
2023-05-29T04:50:25.956Z,64.50
2023-05-29T04:52:54.158Z,64.70
2023-05-29T04:55:21.016Z,65.80
2023-05-29T04:57:47.824Z,66.10
2023-05-29T05:00:15.630Z,66.90
2023-05-29T05:02:43.266Z,66.80
2023-05-29T05:05:10.360Z,67.00
2023-05-29T05:07:37.224Z,67.10
2023-05-29T05:10:06.237Z,67.10
2023-05-29T05:12:33.188Z,67.30
2023-05-29T05:15:00.022Z,67.10
2023-05-29T05:17:26.898Z,67.30
2023-05-29T05:19:54.310Z,67.40
2023-05-29T05:22:21.278Z,67.90
2023-05-29T05:24:48.125Z,68.00
2023-05-29T05:27:16.358Z,68.10
2023-05-29T05:29:43.187Z,68.40
2023-05-29T05:32:10.019Z,69.10
2023-05-29T05:34:36.881Z,69.40
2023-05-29T05:37:06.506Z,70.70
2023-05-29T05:39:33.318Z,71.00
2023-05-29T05:42:00.158Z,70.70
2023-05-29T05:44:28.360Z,70.50
2023-05-29T05:46:55.215Z,70.60
2023-05-29T05:49:22.038Z,70.20
2023-05-29T05:51:50.599Z,70.30
2023-05-29T05:54:17.680Z,69.70
2023-05-29T05:56:44.501Z,69.10
2023-05-29T05:59:11.306Z,69.10
2023-05-29T06:01:39.522Z,68.70
2023-05-29T06:04:06.430Z,68.30
2023-05-29T06:06:33.290Z,68.60
2023-05-29T06:09:00.204Z,68.00
2023-05-29T06:11:27.106Z,67.60
2023-05-29T06:13:54.325Z,67.40
2023-05-29T06:16:21.173Z,67.00
2023-05-29T06:18:49.386Z,66.70
2023-05-29T06:21:16.190Z,66.40
2023-05-29T06:23:43.039Z,66.60
2023-05-29T06:26:09.832Z,66.80
2023-05-29T06:28:36.686Z,66.80
2023-05-29T06:31:03.561Z,66.30
2023-05-29T06:33:30.404Z,65.70
2023-05-29T06:35:59.116Z,65.80
2023-05-29T06:38:26.928Z,66.10
2023-05-29T06:40:53.899Z,65.60
2023-05-29T06:43:20.895Z,65.50
2023-05-29T06:45:47.717Z,65.30
2023-05-29T06:48:14.600Z,65.10
2023-05-29T06:50:41.782Z,65.00
2023-05-29T06:53:10.062Z,65.20
2023-05-29T06:55:36.878Z,65.10
2023-05-29T06:58:03.701Z,64.90
2023-05-29T07:00:30.676Z,64.90
2023-05-29T07:02:57.731Z,65.00
2023-05-29T07:05:24.621Z,65.10
2023-05-29T07:07:51.460Z,65.10
2023-05-29T07:10:19.619Z,65.00
2023-05-29T07:12:46.457Z,65.10
2023-05-29T07:15:13.251Z,65.30
2023-05-29T07:17:40.050Z,65.50
2023-05-29T07:20:08.360Z,65.70
2023-05-29T07:22:35.361Z,66.10
2023-05-29T07:25:02.251Z,66.10
2023-05-29T07:27:30.450Z,66.10
2023-05-29T07:29:57.270Z,66.30
2023-05-29T07:32:24.106Z,66.50
2023-05-29T07:34:50.945Z,66.90
2023-05-29T07:37:17.788Z,66.80
2023-05-29T07:39:44.594Z,67.10
2023-05-29T07:42:11.535Z,67.20
2023-05-29T07:44:39.761Z,67.30
2023-05-29T07:47:06.742Z,67.50
2023-05-29T07:49:33.546Z,67.80
2023-05-29T07:52:00.452Z,67.80
2023-05-29T07:54:27.397Z,67.80
2023-05-29T07:56:54.226Z,68.30
2023-05-29T07:59:21.084Z,68.00
2023-05-29T08:01:49.309Z,68.20
2023-05-29T08:04:16.189Z,68.40
2023-05-29T08:06:43.020Z,68.10
2023-05-29T08:09:10.109Z,68.30
2023-05-29T08:11:37.553Z,68.40
2023-05-29T08:14:04.400Z,68.40
2023-05-29T08:16:31.342Z,68.40
2023-05-29T08:18:59.572Z,69.20
2023-05-29T08:21:26.385Z,68.50
2023-05-29T08:23:53.220Z,68.50
2023-05-29T08:26:20.040Z,68.40
2023-05-29T08:28:46.892Z,68.30
2023-05-29T08:31:13.777Z,68.40
2023-05-29T08:33:40.626Z,68.40
2023-05-29T08:36:09.197Z,68.60
2023-05-29T08:38:36.050Z,68.50
2023-05-29T08:41:03.882Z,68.70
2023-05-29T08:43:32.201Z,68.70
2023-05-29T08:46:01.696Z,68.80
2023-05-29T08:48:29.802Z,68.80
2023-05-29T08:50:58.119Z,69.00
2023-05-29T08:53:27.315Z,69.00
2023-05-29T08:55:54.245Z,69.00
2023-05-29T08:58:21.649Z,69.10
2023-05-29T09:00:49.286Z,69.00
2023-05-29T09:03:16.571Z,69.10
2023-05-29T09:05:43.478Z,69.20
2023-05-29T09:08:11.132Z,69.30
2023-05-29T09:10:39.912Z,69.30
2023-05-29T09:13:07.018Z,69.30
2023-05-29T09:15:34.361Z,69.40
2023-05-29T09:18:01.439Z,69.40
2023-05-29T09:20:28.542Z,69.40
2023-05-29T09:22:56.365Z,69.50
2023-05-29T09:25:24.920Z,69.50
2023-05-29T09:28:00.164Z,69.40
2023-05-29T09:30:35.842Z,69.40
2023-05-29T09:33:03.304Z,69.50
2023-05-29T09:35:34.605Z,69.40
2023-05-29T09:38:01.868Z,69.40
2023-05-29T09:40:31.414Z,69.40
2023-05-29T09:43:05.048Z,69.40
2023-05-29T09:45:32.002Z,69.50
2023-05-29T09:47:59.839Z,69.60
2023-05-29T09:50:27.350Z,69.50
2023-05-29T09:52:54.205Z,69.50
2023-05-29T09:55:21.604Z,69.70
2023-05-29T09:57:48.759Z,69.70
2023-05-29T10:00:18.955Z,70.20
2023-05-29T10:02:45.948Z,69.80
2023-05-29T10:05:12.991Z,69.80
2023-05-29T10:07:44.730Z,69.90
2023-05-29T10:10:13.019Z,69.90
2023-05-29T10:12:42.763Z,70.00
2023-05-29T10:15:14.383Z,70.00
2023-05-29T10:17:50.380Z,70.00
2023-05-29T10:20:19.010Z,70.00
2023-05-29T10:22:48.430Z,70.00
2023-05-29T10:25:18.829Z,70.10
2023-05-29T10:27:45.754Z,69.60
2023-05-29T10:30:19.042Z,69.80
2023-05-29T10:33:05.402Z,69.80
2023-05-29T10:35:43.408Z,69.90
2023-05-29T10:38:13.748Z,69.90
2023-05-29T10:40:40.612Z,69.90
2023-05-29T10:43:07.456Z,70.00
2023-05-29T10:45:50.516Z,70.00
2023-05-29T10:48:41.256Z,70.00
2023-05-29T10:51:08.813Z,70.10
2023-05-29T10:53:36.114Z,70.10
2023-05-29T10:56:02.962Z,70.00
2023-05-29T10:58:31.697Z,70.30
2023-05-29T11:00:58.644Z,70.20
2023-05-29T11:03:26.945Z,70.00
2023-05-29T11:06:03.270Z,70.10
2023-05-29T11:08:34.858Z,70.10
2023-05-29T11:11:02.064Z,69.60
2023-05-29T11:13:34.050Z,69.80
2023-05-29T11:16:11.224Z,70.00
2023-05-29T11:18:41.435Z,70.10
2023-05-29T11:21:32.002Z,70.20
2023-05-29T11:23:59.734Z,70.20
2023-05-29T11:26:28.512Z,70.60
2023-05-29T11:28:58.630Z,70.30
2023-05-29T11:31:27.522Z,70.40
2023-05-29T11:33:59.597Z,70.50
2023-05-29T11:36:28.098Z,70.60
2023-05-29T11:38:55.098Z,70.60
2023-05-29T11:41:22.059Z,70.60
2023-05-29T11:43:58.116Z,69.10
2023-05-29T11:46:25.182Z,69.70
2023-05-29T11:48:52.482Z,70.20
2023-05-29T11:51:19.286Z,70.10
2023-05-29T11:53:49.231Z,70.10
2023-05-29T11:56:16.177Z,70.10
2023-05-29T11:58:44.065Z,70.30
2023-05-29T12:01:10.955Z,70.00
2023-05-29T12:03:41.656Z,69.50
2023-05-29T12:06:10.324Z,69.80
2023-05-29T12:08:37.919Z,69.90
2023-05-29T12:11:06.755Z,70.00
2023-05-29T12:13:34.106Z,69.90
2023-05-29T12:16:03.985Z,70.40
2023-05-29T12:18:31.051Z,69.70
2023-05-29T12:20:58.820Z,69.90
2023-05-29T12:23:25.661Z,69.90
2023-05-29T12:25:53.047Z,69.90
2023-05-29T12:28:22.240Z,70.00
2023-05-29T12:30:50.084Z,70.00
2023-05-29T12:33:27.172Z,70.10
2023-05-29T12:35:54.158Z,70.10
2023-05-29T12:38:21.085Z,69.70
2023-05-29T12:40:50.376Z,69.80
2023-05-29T12:43:17.599Z,69.10
2023-05-29T12:45:45.913Z,69.40
2023-05-29T12:48:13.141Z,69.50
2023-05-29T12:50:40.443Z,69.50
2023-05-29T12:53:08.368Z,69.50
2023-05-29T12:55:36.725Z,69.50
2023-05-29T12:58:04.090Z,69.20
2023-05-29T13:00:30.906Z,68.80
2023-05-29T13:02:59.238Z,68.10
2023-05-29T13:05:26.153Z,68.50
2023-05-29T13:07:53.758Z,68.70
2023-05-29T13:10:21.369Z,68.70
2023-05-29T13:12:49.146Z,68.70
2023-05-29T13:15:16.162Z,68.80
2023-05-29T13:17:43.165Z,68.50
2023-05-29T13:20:13.379Z,67.30
2023-05-29T13:22:40.854Z,67.80
2023-05-29T13:25:09.262Z,68.20
2023-05-29T13:27:37.035Z,68.20
2023-05-29T13:30:04.787Z,68.10
2023-05-29T13:32:31.674Z,68.40
2023-05-29T13:34:58.604Z,68.40
2023-05-29T13:37:26.741Z,67.60
2023-05-29T13:39:53.528Z,67.80
2023-05-29T13:42:20.982Z,67.80
2023-05-29T13:44:48.506Z,67.90
2023-05-29T13:47:16.037Z,68.00
2023-05-29T13:49:43.151Z,68.10
2023-05-29T13:52:10.335Z,67.70
2023-05-29T13:54:39.468Z,67.10
2023-05-29T13:57:07.440Z,67.10
2023-05-29T13:59:35.442Z,66.40
2023-05-29T14:02:03.578Z,66.60
2023-05-29T14:04:30.592Z,66.60
2023-05-29T14:06:57.524Z,66.50
2023-05-29T14:09:24.352Z,66.50
2023-05-29T14:11:52.759Z,66.40
2023-05-29T14:14:20.395Z,66.50
2023-05-29T14:16:47.185Z,66.50
2023-05-29T14:19:14.484Z,66.30
2023-05-29T14:21:41.361Z,65.90
2023-05-29T14:24:08.210Z,66.10
2023-05-29T14:26:35.135Z,66.00
2023-05-29T14:29:13.461Z,65.60
2023-05-29T14:31:41.355Z,63.60
2023-05-29T14:34:08.337Z,63.80
2023-05-29T14:36:35.163Z,63.70
2023-05-29T14:39:02.307Z,63.80
2023-05-29T14:41:29.123Z,63.80
2023-05-29T14:43:55.940Z,63.80
2023-05-29T14:46:24.140Z,63.70
2023-05-29T14:48:51.097Z,63.70
2023-05-29T14:51:17.951Z,63.50
2023-05-29T14:53:44.738Z,63.40
2023-05-29T14:56:11.585Z,63.20
2023-05-29T14:58:38.392Z,64.00
2023-05-29T15:01:05.666Z,62.90
2023-05-29T15:03:33.971Z,62.90
2023-05-29T15:06:00.836Z,62.20
2023-05-29T15:08:27.751Z,61.10
2023-05-29T15:10:54.573Z,61.40
2023-05-29T15:13:21.361Z,61.50
2023-05-29T15:15:48.682Z,60.90
2023-05-29T15:18:15.530Z,60.70
2023-05-29T15:20:43.922Z,60.70
2023-05-29T15:23:10.856Z,60.80
2023-05-29T15:25:37.709Z,60.80
2023-05-29T15:28:04.582Z,60.60
2023-05-29T15:30:31.442Z,60.40
2023-05-29T15:32:58.316Z,60.50
2023-05-29T15:35:25.216Z,60.00
2023-05-29T15:37:53.449Z,59.70
2023-05-29T15:40:20.307Z,59.70
2023-05-29T15:42:47.106Z,59.50
2023-05-29T15:45:14.035Z,58.90
2023-05-29T15:47:40.975Z,59.00
2023-05-29T15:50:08.655Z,58.40
2023-05-29T15:52:46.298Z,58.10
2023-05-29T15:55:19.601Z,58.20
2023-05-29T15:57:46.583Z,58.30
2023-05-29T16:00:14.670Z,57.20
2023-05-29T16:02:41.797Z,56.90
2023-05-29T16:05:09.020Z,57.20
2023-05-29T16:07:36.278Z,56.00
2023-05-29T16:10:11.429Z,56.70
2023-05-29T16:12:39.689Z,56.90
2023-05-29T16:15:07.496Z,56.30
2023-05-29T16:17:35.979Z,56.40
2023-05-29T16:20:03.011Z,56.00
2023-05-29T16:22:41.206Z,56.20
2023-05-29T16:25:10.065Z,56.20
2023-05-29T16:27:37.308Z,55.60
2023-05-29T16:30:07.185Z,55.90
2023-05-29T16:32:35.235Z,55.90
2023-05-29T16:35:02.265Z,56.00
2023-05-29T16:37:31.798Z,56.10
2023-05-29T16:39:58.635Z,55.90
2023-05-29T16:42:25.796Z,55.80
2023-05-29T16:44:53.582Z,55.30
2023-05-29T16:47:21.998Z,53.50
2023-05-29T16:49:49.093Z,53.90
2023-05-29T16:52:16.039Z,54.20
2023-05-29T16:54:42.942Z,54.70
2023-05-29T16:57:10.337Z,54.20
2023-05-29T16:59:37.248Z,54.70
2023-05-29T17:02:04.425Z,54.30
2023-05-29T17:04:32.861Z,54.80
2023-05-29T17:06:59.760Z,54.90
2023-05-29T17:09:26.815Z,54.90
2023-05-29T17:11:53.722Z,54.60
2023-05-29T17:14:20.619Z,54.90
2023-05-29T17:16:47.467Z,54.60
2023-05-29T17:19:14.318Z,53.60
2023-05-29T17:21:42.451Z,54.20
2023-05-29T17:24:09.271Z,54.10
2023-05-29T17:26:36.113Z,54.00
2023-05-29T17:29:02.938Z,53.30
2023-05-29T17:31:29.752Z,53.70
2023-05-29T17:33:56.595Z,54.00
2023-05-29T17:36:23.408Z,53.80
2023-05-29T17:38:51.610Z,53.50
2023-05-29T17:41:18.583Z,53.70
2023-05-29T17:43:45.368Z,53.70
2023-05-29T17:46:12.383Z,53.70
2023-05-29T17:48:39.225Z,53.80
2023-05-29T17:51:06.088Z,53.90
2023-05-29T17:53:32.937Z,53.80
2023-05-29T17:56:01.536Z,53.60
2023-05-29T17:58:28.404Z,53.80
2023-05-29T18:00:55.214Z,53.80
2023-05-29T18:03:22.958Z,53.90
2023-05-29T18:05:49.825Z,53.80
2023-05-29T18:08:16.710Z,54.00
2023-05-29T18:10:43.524Z,54.00
2023-05-29T18:13:11.761Z,54.00
2023-05-29T18:15:38.599Z,54.10
2023-05-29T18:18:07.700Z,54.20
2023-05-29T18:20:35.084Z,54.20
2023-05-29T18:23:01.988Z,54.40
2023-05-29T18:25:28.813Z,54.50
2023-05-29T18:27:55.637Z,54.80
2023-05-29T18:30:23.871Z,54.50
2023-05-29T18:32:50.719Z,54.50
2023-05-29T18:35:17.699Z,54.50
2023-05-29T18:37:44.506Z,54.60
2023-05-29T18:40:12.154Z,54.50
2023-05-29T18:42:39.013Z,54.50
2023-05-29T18:45:06.938Z,54.50
2023-05-29T18:47:35.128Z,54.40
2023-05-29T18:50:01.971Z,54.10
2023-05-29T18:52:28.787Z,54.30
2023-05-29T18:54:55.642Z,54.70
2023-05-29T18:57:24.445Z,55.10
2023-05-29T18:59:52.374Z,55.10
2023-05-29T19:02:19.317Z,55.60
2023-05-29T19:04:47.539Z,55.90
2023-05-29T19:07:15.016Z,56.00
2023-05-29T19:09:42.075Z,56.10
2023-05-29T19:12:09.504Z,56.30
2023-05-29T19:14:36.363Z,56.40
2023-05-29T19:17:03.455Z,56.40
2023-05-29T19:19:30.260Z,56.50
2023-05-29T19:21:58.448Z,56.30
2023-05-29T19:24:25.246Z,56.40
2023-05-29T19:26:52.102Z,56.30
2023-05-29T19:29:19.003Z,56.30
2023-05-29T19:31:45.838Z,56.30
2023-05-29T19:34:12.709Z,56.50
2023-05-29T19:36:39.596Z,56.70
2023-05-29T19:39:07.745Z,56.70
2023-05-29T19:41:34.586Z,56.90
2023-05-29T19:44:01.386Z,57.00
2023-05-29T19:46:28.382Z,56.90
2023-05-29T19:48:55.180Z,57.10
2023-05-29T19:51:21.993Z,57.20
2023-05-29T19:53:48.832Z,57.00
2023-05-29T19:56:17.119Z,57.00
2023-05-29T19:58:43.893Z,56.80
2023-05-29T20:01:10.797Z,56.80
2023-05-29T20:03:37.926Z,56.90
2023-05-29T20:06:05.618Z,56.90
2023-05-29T20:08:32.687Z,57.20
2023-05-29T20:11:00.328Z,57.40
2023-05-29T20:13:28.872Z,57.40
2023-05-29T20:15:56.793Z,57.70
2023-05-29T20:18:23.819Z,57.90
2023-05-29T20:20:50.766Z,57.70
2023-05-29T20:23:17.689Z,57.80
2023-05-29T20:25:44.544Z,57.80
2023-05-29T20:28:11.463Z,57.90
2023-05-29T20:30:39.614Z,57.80
2023-05-29T20:33:06.532Z,57.80
2023-05-29T20:35:33.392Z,58.00
2023-05-29T20:38:00.184Z,57.90
2023-05-29T20:40:27.014Z,57.80
2023-05-29T20:42:53.849Z,57.90
2023-05-29T20:45:20.665Z,58.00
2023-05-29T20:47:48.951Z,58.10
2023-05-29T20:50:15.784Z,58.20
2023-05-29T20:52:42.638Z,58.20
2023-05-29T20:55:09.772Z,58.30
2023-05-29T20:57:36.575Z,58.50
2023-05-29T21:00:03.856Z,58.90
2023-05-29T21:02:30.757Z,58.80
2023-05-29T21:04:58.916Z,58.90
2023-05-29T21:07:25.742Z,59.20
2023-05-29T21:09:52.566Z,59.20
2023-05-29T21:12:19.414Z,59.20
2023-05-29T21:14:46.240Z,59.40
2023-05-29T21:17:13.081Z,59.60
2023-05-29T21:19:39.908Z,59.60
2023-05-29T21:22:08.143Z,59.50
2023-05-29T21:24:34.967Z,59.70
2023-05-29T21:27:01.764Z,60.00
2023-05-29T21:29:28.593Z,60.20
2023-05-29T21:31:55.568Z,59.90
2023-05-29T21:34:22.489Z,59.90
2023-05-29T21:36:50.996Z,59.70
2023-05-29T21:39:19.352Z,59.60
2023-05-29T21:41:46.818Z,59.60
2023-05-29T21:44:13.703Z,59.80
2023-05-29T21:46:40.536Z,59.70
2023-05-29T21:49:07.374Z,59.70
2023-05-29T21:51:34.707Z,59.50
2023-05-29T21:54:01.771Z,59.70
2023-05-29T21:56:29.966Z,59.60
2023-05-29T21:58:56.854Z,59.80
2023-05-29T22:01:23.762Z,59.80
2023-05-29T22:03:50.652Z,59.80
2023-05-29T22:06:17.639Z,59.80
2023-05-29T22:08:45.787Z,59.60
2023-05-29T22:11:13.172Z,59.50
2023-05-29T22:13:41.646Z,59.50
2023-05-29T22:16:08.680Z,59.80
2023-05-29T22:18:36.548Z,59.70
2023-05-29T22:21:04.133Z,59.80
2023-05-29T22:23:31.301Z,59.70
2023-05-29T22:25:58.798Z,59.80
2023-05-29T22:28:25.587Z,59.90
2023-05-29T22:30:53.914Z,59.70
2023-05-29T22:33:20.845Z,59.90
2023-05-29T22:35:48.030Z,59.90
2023-05-29T22:38:14.828Z,59.90
2023-05-29T22:40:41.644Z,59.90
2023-05-29T22:43:08.506Z,60.00
2023-05-29T22:45:35.346Z,60.00
2023-05-29T22:48:03.818Z,60.10
2023-05-29T22:50:30.761Z,60.20
2023-05-29T22:52:57.563Z,60.00
2023-05-29T22:55:24.518Z,60.20
2023-05-29T22:57:52.283Z,60.20
2023-05-29T23:00:19.654Z,60.00
2023-05-29T23:02:46.505Z,59.60
2023-05-29T23:05:14.792Z,59.90
2023-05-29T23:07:41.626Z,59.90
2023-05-29T23:10:09.818Z,59.90
2023-05-29T23:12:36.713Z,59.60
2023-05-29T23:15:03.883Z,59.60
2023-05-29T23:17:30.701Z,59.50
2023-05-29T23:19:57.527Z,59.30
2023-05-29T23:22:25.724Z,59.00
2023-05-29T23:24:52.526Z,58.80
2023-05-29T23:27:19.365Z,59.10
2023-05-29T23:29:46.232Z,58.60
2023-05-29T23:32:13.038Z,58.50
2023-05-29T23:34:39.916Z,58.20
2023-05-29T23:37:06.916Z,58.20
2023-05-29T23:39:35.111Z,58.70
2023-05-29T23:42:01.972Z,58.90
2023-05-29T23:44:28.866Z,58.80
2023-05-29T23:46:55.794Z,58.40
2023-05-29T23:49:22.592Z,58.60
2023-05-29T23:51:49.545Z,58.40
2023-05-29T23:54:16.344Z,58.40
2023-05-29T23:56:44.558Z,58.40
2023-05-29T23:59:11.337Z,58.40
